sensor_id;sensor_type;location;lat;lon;timestamp;temperature;humidity
4052;DHT22;2040;50.924;11.604;2023-07-13T00:01:35;20.10;99.90
4052;DHT22;2040;50.924;11.604;2023-07-13T00:04:04;20.20;99.90
4052;DHT22;2040;50.924;11.604;2023-07-13T00:06:29;20.10;99.90
4052;DHT22;2040;50.924;11.604;2023-07-13T00:08:59;20.10;99.90
4052;DHT22;2040;50.924;11.604;2023-07-13T00:11:24;20.20;99.90
4052;DHT22;2040;50.924;11.604;2023-07-13T00:13:50;20.30;99.90
4052;DHT22;2040;50.924;11.604;2023-07-13T00:16:16;20.30;99.90
4052;DHT22;2040;50.924;11.604;2023-07-13T00:18:44;20.20;99.90
4052;DHT22;2040;50.924;11.604;2023-07-13T00:21:09;20.20;99.90
4052;DHT22;2040;50.924;11.604;2023-07-13T00:23:36;20.20;99.90
4052;DHT22;2040;50.924;11.604;2023-07-13T00:26:04;20.20;99.90
4052;DHT22;2040;50.924;11.604;2023-07-13T00:28:29;20.10;99.90
4052;DHT22;2040;50.924;11.604;2023-07-13T00:30:55;20.10;99.90
4052;DHT22;2040;50.924;11.604;2023-07-13T00:33:21;20.10;99.90
4052;DHT22;2040;50.924;11.604;2023-07-13T00:35:48;20.10;99.90
4052;DHT22;2040;50.924;11.604;2023-07-13T00:38:14;20.10;99.90
4052;DHT22;2040;50.924;11.604;2023-07-13T00:40:39;20.20;99.90
4052;DHT22;2040;50.924;11.604;2023-07-13T00:43:18;20.20;99.90
4052;DHT22;2040;50.924;11.604;2023-07-13T00:48:12;20.00;99.90
4052;DHT22;2040;50.924;11.604;2023-07-13T00:50:40;20.00;99.90
4052;DHT22;2040;50.924;11.604;2023-07-13T00:53:07;19.90;99.90
4052;DHT22;2040;50.924;11.604;2023-07-13T00:55:34;19.90;99.90
4052;DHT22;2040;50.924;11.604;2023-07-13T00:58:00;19.80;99.90
4052;DHT22;2040;50.924;11.604;2023-07-13T01:00:29;19.80;99.90
4052;DHT22;2040;50.924;11.604;2023-07-13T01:02:55;19.80;99.90
4052;DHT22;2040;50.924;11.604;2023-07-13T01:05:22;19.70;99.90
4052;DHT22;2040;50.924;11.604;2023-07-13T01:07:50;19.80;99.90
4052;DHT22;2040;50.924;11.604;2023-07-13T01:10:17;19.90;99.90
4052;DHT22;2040;50.924;11.604;2023-07-13T01:12:46;20.00;99.90
4052;DHT22;2040;50.924;11.604;2023-07-13T01:18:03;19.90;99.90
4052;DHT22;2040;50.924;11.604;2023-07-13T01:20:29;19.70;99.90
4052;DHT22;2040;50.924;11.604;2023-07-13T01:22:54;19.60;99.90
4052;DHT22;2040;50.924;11.604;2023-07-13T01:25:20;19.50;99.90
4052;DHT22;2040;50.924;11.604;2023-07-13T01:27:46;19.50;99.90
4052;DHT22;2040;50.924;11.604;2023-07-13T01:30:12;19.60;99.90
4052;DHT22;2040;50.924;11.604;2023-07-13T01:32:38;19.70;99.90
4052;DHT22;2040;50.924;11.604;2023-07-13T01:35:07;19.60;99.90
4052;DHT22;2040;50.924;11.604;2023-07-13T01:37:33;19.60;99.90
4052;DHT22;2040;50.924;11.604;2023-07-13T01:40:03;19.70;99.90
4052;DHT22;2040;50.924;11.604;2023-07-13T01:42:29;19.70;99.90
4052;DHT22;2040;50.924;11.604;2023-07-13T01:44:55;19.60;99.90
4052;DHT22;2040;50.924;11.604;2023-07-13T01:47:20;19.60;99.90
4052;DHT22;2040;50.924;11.604;2023-07-13T01:49:46;19.50;99.90
4052;DHT22;2040;50.924;11.604;2023-07-13T01:52:12;19.50;99.90
4052;DHT22;2040;50.924;11.604;2023-07-13T01:54:38;19.70;99.90
4052;DHT22;2040;50.924;11.604;2023-07-13T01:57:03;19.50;99.90
4052;DHT22;2040;50.924;11.604;2023-07-13T01:59:29;19.30;99.90
4052;DHT22;2040;50.924;11.604;2023-07-13T02:01:55;19.20;99.90
4052;DHT22;2040;50.924;11.604;2023-07-13T02:04:20;19.20;99.90
4052;DHT22;2040;50.924;11.604;2023-07-13T02:06:46;19.00;99.90
4052;DHT22;2040;50.924;11.604;2023-07-13T02:09:11;19.00;99.90
4052;DHT22;2040;50.924;11.604;2023-07-13T02:11:37;19.00;99.90
4052;DHT22;2040;50.924;11.604;2023-07-13T02:14:03;19.00;99.90
4052;DHT22;2040;50.924;11.604;2023-07-13T02:16:30;19.30;99.90
4052;DHT22;2040;50.924;11.604;2023-07-13T02:18:56;19.50;99.90
4052;DHT22;2040;50.924;11.604;2023-07-13T02:21:22;19.50;99.90
4052;DHT22;2040;50.924;11.604;2023-07-13T02:23:49;19.50;99.90
4052;DHT22;2040;50.924;11.604;2023-07-13T02:26:14;19.40;99.90
4052;DHT22;2040;50.924;11.604;2023-07-13T02:28:40;19.40;99.90
4052;DHT22;2040;50.924;11.604;2023-07-13T02:31:11;19.40;99.90
4052;DHT22;2040;50.924;11.604;2023-07-13T02:33:37;19.50;99.90
4052;DHT22;2040;50.924;11.604;2023-07-13T02:36:03;19.60;99.90
4052;DHT22;2040;50.924;11.604;2023-07-13T02:38:31;19.60;99.90
4052;DHT22;2040;50.924;11.604;2023-07-13T02:40:59;19.60;99.90
4052;DHT22;2040;50.924;11.604;2023-07-13T02:43:24;19.50;99.90
4052;DHT22;2040;50.924;11.604;2023-07-13T02:45:50;19.40;99.90
4052;DHT22;2040;50.924;11.604;2023-07-13T02:48:15;19.40;99.90
4052;DHT22;2040;50.924;11.604;2023-07-13T02:50:41;19.40;99.90
4052;DHT22;2040;50.924;11.604;2023-07-13T02:53:07;19.40;99.90
4052;DHT22;2040;50.924;11.604;2023-07-13T02:55:32;19.40;99.90
4052;DHT22;2040;50.924;11.604;2023-07-13T02:57:58;19.30;99.90
4052;DHT22;2040;50.924;11.604;2023-07-13T03:00:24;19.30;99.90
4052;DHT22;2040;50.924;11.604;2023-07-13T03:02:49;19.30;99.90
4052;DHT22;2040;50.924;11.604;2023-07-13T03:05:16;19.40;99.90
4052;DHT22;2040;50.924;11.604;2023-07-13T03:07:41;19.40;99.90
4052;DHT22;2040;50.924;11.604;2023-07-13T03:10:08;19.30;99.90
4052;DHT22;2040;50.924;11.604;2023-07-13T03:12:33;19.20;99.90
4052;DHT22;2040;50.924;11.604;2023-07-13T03:14:59;19.20;99.90
4052;DHT22;2040;50.924;11.604;2023-07-13T03:17:24;19.20;99.90
4052;DHT22;2040;50.924;11.604;2023-07-13T03:19:50;19.20;99.90
4052;DHT22;2040;50.924;11.604;2023-07-13T03:22:17;19.10;99.90
4052;DHT22;2040;50.924;11.604;2023-07-13T03:24:44;18.90;99.90
4052;DHT22;2040;50.924;11.604;2023-07-13T03:27:09;18.80;99.90
4052;DHT22;2040;50.924;11.604;2023-07-13T03:29:35;18.60;99.90
4052;DHT22;2040;50.924;11.604;2023-07-13T03:32:00;18.40;99.90
4052;DHT22;2040;50.924;11.604;2023-07-13T03:34:26;18.40;99.90
4052;DHT22;2040;50.924;11.604;2023-07-13T03:36:54;18.40;99.90
4052;DHT22;2040;50.924;11.604;2023-07-13T03:39:20;18.30;99.90
4052;DHT22;2040;50.924;11.604;2023-07-13T03:41:45;18.20;99.90
4052;DHT22;2040;50.924;11.604;2023-07-13T03:44:11;18.20;99.90
4052;DHT22;2040;50.924;11.604;2023-07-13T03:46:37;18.20;99.90
4052;DHT22;2040;50.924;11.604;2023-07-13T03:49:04;18.10;99.90
4052;DHT22;2040;50.924;11.604;2023-07-13T03:51:30;18.20;99.90
4052;DHT22;2040;50.924;11.604;2023-07-13T03:53:56;18.20;99.90
4052;DHT22;2040;50.924;11.604;2023-07-13T03:56:22;18.10;99.90
4052;DHT22;2040;50.924;11.604;2023-07-13T03:58:49;18.00;99.90
4052;DHT22;2040;50.924;11.604;2023-07-13T04:01:17;18.00;99.90
4052;DHT22;2040;50.924;11.604;2023-07-13T04:03:43;17.90;99.90
4052;DHT22;2040;50.924;11.604;2023-07-13T04:06:18;18.00;99.90
4052;DHT22;2040;50.924;11.604;2023-07-13T04:08:49;18.00;99.90
4052;DHT22;2040;50.924;11.604;2023-07-13T04:11:15;18.10;99.90
4052;DHT22;2040;50.924;11.604;2023-07-13T04:13:41;18.20;99.90
4052;DHT22;2040;50.924;11.604;2023-07-13T04:16:06;18.30;99.90
4052;DHT22;2040;50.924;11.604;2023-07-13T04:18:32;18.40;99.90
4052;DHT22;2040;50.924;11.604;2023-07-13T04:20:57;18.40;99.90
4052;DHT22;2040;50.924;11.604;2023-07-13T04:23:23;18.40;99.90
4052;DHT22;2040;50.924;11.604;2023-07-13T04:25:51;18.50;99.90
4052;DHT22;2040;50.924;11.604;2023-07-13T04:28:19;18.60;99.90
4052;DHT22;2040;50.924;11.604;2023-07-13T04:30:45;18.60;99.90
4052;DHT22;2040;50.924;11.604;2023-07-13T04:33:10;18.40;99.90
4052;DHT22;2040;50.924;11.604;2023-07-13T04:35:36;18.30;99.90
4052;DHT22;2040;50.924;11.604;2023-07-13T04:38:02;18.20;99.90
4052;DHT22;2040;50.924;11.604;2023-07-13T04:40:28;18.10;99.90
4052;DHT22;2040;50.924;11.604;2023-07-13T04:42:54;18.00;99.90
4052;DHT22;2040;50.924;11.604;2023-07-13T04:45:20;18.00;99.90
4052;DHT22;2040;50.924;11.604;2023-07-13T04:47:45;17.90;99.90
4052;DHT22;2040;50.924;11.604;2023-07-13T04:50:12;17.80;99.90
4052;DHT22;2040;50.924;11.604;2023-07-13T04:52:40;17.90;99.90
4052;DHT22;2040;50.924;11.604;2023-07-13T04:55:07;17.80;99.90
4052;DHT22;2040;50.924;11.604;2023-07-13T04:57:33;17.70;99.90
4052;DHT22;2040;50.924;11.604;2023-07-13T04:59:59;17.60;99.90
4052;DHT22;2040;50.924;11.604;2023-07-13T05:02:26;17.50;99.90
4052;DHT22;2040;50.924;11.604;2023-07-13T05:04:53;17.40;99.90
4052;DHT22;2040;50.924;11.604;2023-07-13T05:07:19;17.40;99.90
4052;DHT22;2040;50.924;11.604;2023-07-13T05:09:44;17.40;99.90
4052;DHT22;2040;50.924;11.604;2023-07-13T05:12:10;17.30;99.90
4052;DHT22;2040;50.924;11.604;2023-07-13T05:14:36;17.40;99.90
4052;DHT22;2040;50.924;11.604;2023-07-13T05:17:01;17.50;99.90
4052;DHT22;2040;50.924;11.604;2023-07-13T05:19:27;17.60;99.90
4052;DHT22;2040;50.924;11.604;2023-07-13T05:21:52;17.70;99.90
4052;DHT22;2040;50.924;11.604;2023-07-13T05:24:18;17.90;99.90
4052;DHT22;2040;50.924;11.604;2023-07-13T05:26:44;17.90;99.90
4052;DHT22;2040;50.924;11.604;2023-07-13T05:29:09;18.00;99.90
4052;DHT22;2040;50.924;11.604;2023-07-13T05:31:35;18.20;99.90
4052;DHT22;2040;50.924;11.604;2023-07-13T05:34:00;18.30;99.90
4052;DHT22;2040;50.924;11.604;2023-07-13T05:36:26;18.30;99.90
4052;DHT22;2040;50.924;11.604;2023-07-13T05:38:52;18.30;99.90
4052;DHT22;2040;50.924;11.604;2023-07-13T05:41:17;18.50;99.90
4052;DHT22;2040;50.924;11.604;2023-07-13T05:43:43;18.60;99.90
4052;DHT22;2040;50.924;11.604;2023-07-13T05:46:08;18.70;99.90
4052;DHT22;2040;50.924;11.604;2023-07-13T05:48:34;18.90;99.90
4052;DHT22;2040;50.924;11.604;2023-07-13T05:51:01;19.00;99.90
4052;DHT22;2040;50.924;11.604;2023-07-13T05:53:26;19.10;99.90
4052;DHT22;2040;50.924;11.604;2023-07-13T05:55:54;19.10;99.90
4052;DHT22;2040;50.924;11.604;2023-07-13T05:58:20;19.40;99.90
4052;DHT22;2040;50.924;11.604;2023-07-13T06:00:47;19.40;99.90
4052;DHT22;2040;50.924;11.604;2023-07-13T06:03:13;19.40;99.90
4052;DHT22;2040;50.924;11.604;2023-07-13T06:05:39;19.40;99.90
4052;DHT22;2040;50.924;11.604;2023-07-13T06:08:06;19.60;99.90
4052;DHT22;2040;50.924;11.604;2023-07-13T06:10:36;19.50;99.90
4052;DHT22;2040;50.924;11.604;2023-07-13T06:13:01;19.50;99.90
4052;DHT22;2040;50.924;11.604;2023-07-13T06:15:27;19.60;99.90
4052;DHT22;2040;50.924;11.604;2023-07-13T06:17:52;19.70;99.90
4052;DHT22;2040;50.924;11.604;2023-07-13T06:20:18;19.90;99.90
4052;DHT22;2040;50.924;11.604;2023-07-13T06:22:44;20.00;99.90
4052;DHT22;2040;50.924;11.604;2023-07-13T06:25:09;20.10;99.90
4052;DHT22;2040;50.924;11.604;2023-07-13T06:27:35;20.20;99.90
4052;DHT22;2040;50.924;11.604;2023-07-13T06:30:00;20.30;99.90
4052;DHT22;2040;50.924;11.604;2023-07-13T06:32:26;20.30;99.90
4052;DHT22;2040;50.924;11.604;2023-07-13T06:34:51;20.20;99.90
4052;DHT22;2040;50.924;11.604;2023-07-13T06:37:18;20.30;99.90
4052;DHT22;2040;50.924;11.604;2023-07-13T06:39:43;20.40;99.90
4052;DHT22;2040;50.924;11.604;2023-07-13T06:42:09;20.40;99.90
4052;DHT22;2040;50.924;11.604;2023-07-13T06:44:35;20.40;99.90
4052;DHT22;2040;50.924;11.604;2023-07-13T06:47:00;20.40;99.90
4052;DHT22;2040;50.924;11.604;2023-07-13T06:49:26;20.50;99.90
4052;DHT22;2040;50.924;11.604;2023-07-13T06:51:51;20.70;99.90
4052;DHT22;2040;50.924;11.604;2023-07-13T06:54:17;20.90;99.90
4052;DHT22;2040;50.924;11.604;2023-07-13T06:56:43;20.90;99.90
4052;DHT22;2040;50.924;11.604;2023-07-13T06:59:08;20.80;99.90
4052;DHT22;2040;50.924;11.604;2023-07-13T07:01:34;20.90;99.90
4052;DHT22;2040;50.924;11.604;2023-07-13T07:03:59;20.70;99.90
4052;DHT22;2040;50.924;11.604;2023-07-13T07:06:25;20.50;99.90
4052;DHT22;2040;50.924;11.604;2023-07-13T07:08:52;20.60;99.90
4052;DHT22;2040;50.924;11.604;2023-07-13T07:11:27;20.60;99.90
4052;DHT22;2040;50.924;11.604;2023-07-13T07:13:53;20.80;99.90
4052;DHT22;2040;50.924;11.604;2023-07-13T07:16:19;20.90;99.90
4052;DHT22;2040;50.924;11.604;2023-07-13T07:18:46;20.90;99.90
4052;DHT22;2040;50.924;11.604;2023-07-13T07:21:13;21.20;99.90
4052;DHT22;2040;50.924;11.604;2023-07-13T07:23:39;21.30;99.90
4052;DHT22;2040;50.924;11.604;2023-07-13T07:26:04;21.40;99.90
4052;DHT22;2040;50.924;11.604;2023-07-13T07:28:30;21.60;99.90
4052;DHT22;2040;50.924;11.604;2023-07-13T07:30:57;21.80;99.90
4052;DHT22;2040;50.924;11.604;2023-07-13T07:33:24;21.70;99.90
4052;DHT22;2040;50.924;11.604;2023-07-13T07:35:49;21.70;99.90
4052;DHT22;2040;50.924;11.604;2023-07-13T07:38:15;21.60;99.90
4052;DHT22;2040;50.924;11.604;2023-07-13T07:40:41;21.50;99.90
4052;DHT22;2040;50.924;11.604;2023-07-13T07:43:08;21.70;99.90
4052;DHT22;2040;50.924;11.604;2023-07-13T07:45:34;21.80;99.90
4052;DHT22;2040;50.924;11.604;2023-07-13T07:48:00;21.90;99.90
4052;DHT22;2040;50.924;11.604;2023-07-13T07:50:27;22.00;99.90
4052;DHT22;2040;50.924;11.604;2023-07-13T07:52:53;21.80;99.90
4052;DHT22;2040;50.924;11.604;2023-07-13T07:55:19;21.70;99.90
4052;DHT22;2040;50.924;11.604;2023-07-13T07:57:44;21.90;99.90
4052;DHT22;2040;50.924;11.604;2023-07-13T08:00:11;21.80;99.90
4052;DHT22;2040;50.924;11.604;2023-07-13T08:02:36;21.80;99.90
4052;DHT22;2040;50.924;11.604;2023-07-13T08:05:02;22.00;99.90
4052;DHT22;2040;50.924;11.604;2023-07-13T08:07:30;22.00;99.90
4052;DHT22;2040;50.924;11.604;2023-07-13T08:09:56;22.10;99.90
4052;DHT22;2040;50.924;11.604;2023-07-13T08:12:22;22.10;99.90
4052;DHT22;2040;50.924;11.604;2023-07-13T08:14:50;22.40;99.90
4052;DHT22;2040;50.924;11.604;2023-07-13T08:17:22;22.80;99.90
4052;DHT22;2040;50.924;11.604;2023-07-13T08:19:48;22.80;99.90
4052;DHT22;2040;50.924;11.604;2023-07-13T08:22:14;22.70;99.90
4052;DHT22;2040;50.924;11.604;2023-07-13T08:24:39;22.80;99.90
4052;DHT22;2040;50.924;11.604;2023-07-13T08:27:05;22.90;99.90
4052;DHT22;2040;50.924;11.604;2023-07-13T08:29:30;22.60;99.90
4052;DHT22;2040;50.924;11.604;2023-07-13T08:31:59;22.40;99.90
4052;DHT22;2040;50.924;11.604;2023-07-13T08:34:24;22.20;99.90
4052;DHT22;2040;50.924;11.604;2023-07-13T08:36:50;22.20;99.90
4052;DHT22;2040;50.924;11.604;2023-07-13T08:39:16;22.20;99.90
4052;DHT22;2040;50.924;11.604;2023-07-13T08:41:41;22.00;99.90
4052;DHT22;2040;50.924;11.604;2023-07-13T08:44:39;22.00;99.90
4052;DHT22;2040;50.924;11.604;2023-07-13T08:47:04;22.00;99.90
4052;DHT22;2040;50.924;11.604;2023-07-13T08:49:30;22.10;99.90
4052;DHT22;2040;50.924;11.604;2023-07-13T08:52:05;22.50;99.90
4052;DHT22;2040;50.924;11.604;2023-07-13T08:54:41;22.90;99.90
4052;DHT22;2040;50.924;11.604;2023-07-13T08:57:14;23.20;99.90
4052;DHT22;2040;50.924;11.604;2023-07-13T08:59:40;23.30;99.90
4052;DHT22;2040;50.924;11.604;2023-07-13T09:05:01;23.60;99.90
4052;DHT22;2040;50.924;11.604;2023-07-13T09:10:31;23.90;99.90
4052;DHT22;2040;50.924;11.604;2023-07-13T09:13:19;23.50;99.90
4052;DHT22;2040;50.924;11.604;2023-07-13T09:15:47;23.20;99.90
4052;DHT22;2040;50.924;11.604;2023-07-13T09:18:27;22.80;99.90
4052;DHT22;2040;50.924;11.604;2023-07-13T09:21:03;22.90;99.90
4052;DHT22;2040;50.924;11.604;2023-07-13T09:23:31;22.80;99.90
4052;DHT22;2040;50.924;11.604;2023-07-13T09:26:14;22.80;99.90
4052;DHT22;2040;50.924;11.604;2023-07-13T09:28:44;22.80;99.90
4052;DHT22;2040;50.924;11.604;2023-07-13T09:31:15;22.80;99.90
4052;DHT22;2040;50.924;11.604;2023-07-13T09:33:41;23.00;99.90
4052;DHT22;2040;50.924;11.604;2023-07-13T09:36:20;23.00;99.90
4052;DHT22;2040;50.924;11.604;2023-07-13T09:38:48;22.90;99.90
4052;DHT22;2040;50.924;11.604;2023-07-13T09:42:20;22.90;99.90
4052;DHT22;2040;50.924;11.604;2023-07-13T09:44:17;23.30;99.90
4052;DHT22;2040;50.924;11.604;2023-07-13T09:46:53;23.40;99.90
4052;DHT22;2040;50.924;11.604;2023-07-13T09:49:26;23.50;99.90
4052;DHT22;2040;50.924;11.604;2023-07-13T09:52:05;23.70;99.90
4052;DHT22;2040;50.924;11.604;2023-07-13T09:54:34;24.10;99.90
4052;DHT22;2040;50.924;11.604;2023-07-13T09:57:01;24.60;99.90
4052;DHT22;2040;50.924;11.604;2023-07-13T09:59:32;24.60;99.90
4052;DHT22;2040;50.924;11.604;2023-07-13T10:01:58;24.40;99.50
4052;DHT22;2040;50.924;11.604;2023-07-13T10:04:41;23.90;99.90
4052;DHT22;2040;50.924;11.604;2023-07-13T10:07:11;23.70;99.90
4052;DHT22;2040;50.924;11.604;2023-07-13T10:09:38;23.40;99.80
4052;DHT22;2040;50.924;11.604;2023-07-13T10:12:13;23.20;98.40
4052;DHT22;2040;50.924;11.604;2023-07-13T10:14:42;23.30;97.00
4052;DHT22;2040;50.924;11.604;2023-07-13T10:17:12;23.20;97.90
4052;DHT22;2040;50.924;11.604;2023-07-13T10:19:41;23.40;97.70
4052;DHT22;2040;50.924;11.604;2023-07-13T10:22:44;23.90;98.30
4052;DHT22;2040;50.924;11.604;2023-07-13T10:25:20;24.60;97.90
4052;DHT22;2040;50.924;11.604;2023-07-13T10:27:47;25.20;97.20
4052;DHT22;2040;50.924;11.604;2023-07-13T10:30:21;24.90;95.70
4052;DHT22;2040;50.924;11.604;2023-07-13T10:32:49;24.50;96.50
4052;DHT22;2040;50.924;11.604;2023-07-13T10:35:18;24.10;95.20
4052;DHT22;2040;50.924;11.604;2023-07-13T10:38:01;24.50;93.80
4052;DHT22;2040;50.924;11.604;2023-07-13T10:40:37;24.40;93.50
4052;DHT22;2040;50.924;11.604;2023-07-13T10:43:09;24.40;95.10
4052;DHT22;2040;50.924;11.604;2023-07-13T10:45:37;25.10;95.10
4052;DHT22;2040;50.924;11.604;2023-07-13T10:48:04;25.90;95.40
4052;DHT22;2040;50.924;11.604;2023-07-13T10:50:30;25.90;94.10
4052;DHT22;2040;50.924;11.604;2023-07-13T10:53:18;25.60;93.20
4052;DHT22;2040;50.924;11.604;2023-07-13T10:58:23;25.00;95.70
4052;DHT22;2040;50.924;11.604;2023-07-13T11:00:53;25.40;94.40
4052;DHT22;2040;50.924;11.604;2023-07-13T11:03:21;25.20;91.90
4052;DHT22;2040;50.924;11.604;2023-07-13T11:05:49;25.00;93.40
4052;DHT22;2040;50.924;11.604;2023-07-13T11:08:32;25.20;94.50
4052;DHT22;2040;50.924;11.604;2023-07-13T11:10:58;25.60;94.10
4052;DHT22;2040;50.924;11.604;2023-07-13T11:21:28;27.10;91.20
4052;DHT22;2040;50.924;11.604;2023-07-13T11:24:04;26.60;91.20
4052;DHT22;2040;50.924;11.604;2023-07-13T11:31:56;25.20;91.70
4052;DHT22;2040;50.924;11.604;2023-07-13T11:34:35;25.60;93.20
4052;DHT22;2040;50.924;11.604;2023-07-13T11:37:02;26.30;91.80
4052;DHT22;2040;50.924;11.604;2023-07-13T11:39:39;26.40;91.90
4052;DHT22;2040;50.924;11.604;2023-07-13T11:42:12;26.10;90.90
4052;DHT22;2040;50.924;11.604;2023-07-13T11:44:43;26.40;91.10
4052;DHT22;2040;50.924;11.604;2023-07-13T11:47:11;26.80;90.10
4052;DHT22;2040;50.924;11.604;2023-07-13T11:49:49;26.20;90.30
4052;DHT22;2040;50.924;11.604;2023-07-13T11:52:21;25.90;90.60
4052;DHT22;2040;50.924;11.604;2023-07-13T11:54:50;25.80;91.40
4052;DHT22;2040;50.924;11.604;2023-07-13T11:57:36;26.00;92.50
4052;DHT22;2040;50.924;11.604;2023-07-13T12:00:11;26.20;90.70
4052;DHT22;2040;50.924;11.604;2023-07-13T12:02:40;25.80;91.20
4052;DHT22;2040;50.924;11.604;2023-07-13T12:05:11;25.60;91.10
4052;DHT22;2040;50.924;11.604;2023-07-13T12:07:38;25.30;91.50
4052;DHT22;2040;50.924;11.604;2023-07-13T12:10:18;25.40;91.10
4052;DHT22;2040;50.924;11.604;2023-07-13T12:12:56;25.40;91.10
4052;DHT22;2040;50.924;11.604;2023-07-13T12:15:23;25.40;91.60
4052;DHT22;2040;50.924;11.604;2023-07-13T12:17:52;25.90;91.50
4052;DHT22;2040;50.924;11.604;2023-07-13T12:20:38;26.20;90.10
4052;DHT22;2040;50.924;11.604;2023-07-13T12:23:32;26.50;91.40
4052;DHT22;2040;50.924;11.604;2023-07-13T12:26:01;27.00;89.20
4052;DHT22;2040;50.924;11.604;2023-07-13T12:28:35;26.90;90.80
4052;DHT22;2040;50.924;11.604;2023-07-13T12:31:06;27.10;89.00
4052;DHT22;2040;50.924;11.604;2023-07-13T12:33:33;26.40;87.50
4052;DHT22;2040;50.924;11.604;2023-07-13T12:36:02;26.10;88.10
4052;DHT22;2040;50.924;11.604;2023-07-13T12:38:29;26.00;90.20
4052;DHT22;2040;50.924;11.604;2023-07-13T12:40:55;25.60;90.50
4052;DHT22;2040;50.924;11.604;2023-07-13T12:43:22;25.80;89.20
4052;DHT22;2040;50.924;11.604;2023-07-13T12:45:57;25.60;90.20
4052;DHT22;2040;50.924;11.604;2023-07-13T12:48:23;25.30;89.50
4052;DHT22;2040;50.924;11.604;2023-07-13T12:50:50;25.10;90.60
4052;DHT22;2040;50.924;11.604;2023-07-13T12:53:21;25.70;90.50
4052;DHT22;2040;50.924;11.604;2023-07-13T12:55:51;26.20;89.80
4052;DHT22;2040;50.924;11.604;2023-07-13T12:58:26;26.00;89.50
4052;DHT22;2040;50.924;11.604;2023-07-13T13:00:55;26.70;90.50
4052;DHT22;2040;50.924;11.604;2023-07-13T13:03:35;26.80;89.40
4052;DHT22;2040;50.924;11.604;2023-07-13T13:06:04;26.50;91.10
4052;DHT22;2040;50.924;11.604;2023-07-13T13:08:34;26.50;90.30
4052;DHT22;2040;50.924;11.604;2023-07-13T13:11:03;26.80;88.90
4052;DHT22;2040;50.924;11.604;2023-07-13T13:13:30;26.90;87.60
4052;DHT22;2040;50.924;11.604;2023-07-13T13:15:55;26.80;89.90
4052;DHT22;2040;50.924;11.604;2023-07-13T13:18:23;27.10;88.10
4052;DHT22;2040;50.924;11.604;2023-07-13T13:20:52;27.30;88.20
4052;DHT22;2040;50.924;11.604;2023-07-13T13:23:23;27.00;87.10
4052;DHT22;2040;50.924;11.604;2023-07-13T13:25:50;26.80;87.40
4052;DHT22;2040;50.924;11.604;2023-07-13T13:28:18;26.60;86.70
4052;DHT22;2040;50.924;11.604;2023-07-13T13:30:46;26.40;86.20
4052;DHT22;2040;50.924;11.604;2023-07-13T13:33:16;26.10;88.20
4052;DHT22;2040;50.924;11.604;2023-07-13T13:35:43;25.90;87.80
4052;DHT22;2040;50.924;11.604;2023-07-13T13:38:11;26.00;88.20
4052;DHT22;2040;50.924;11.604;2023-07-13T13:40:41;26.70;89.20
4052;DHT22;2040;50.924;11.604;2023-07-13T13:43:38;26.90;88.60
4052;DHT22;2040;50.924;11.604;2023-07-13T13:47:07;27.40;88.10
4052;DHT22;2040;50.924;11.604;2023-07-13T13:49:15;28.40;89.50
4052;DHT22;2040;50.924;11.604;2023-07-13T13:51:43;28.50;87.70
4052;DHT22;2040;50.924;11.604;2023-07-13T13:54:14;28.20;85.00
4052;DHT22;2040;50.924;11.604;2023-07-13T13:56:45;27.40;84.20
4052;DHT22;2040;50.924;11.604;2023-07-13T13:59:14;27.10;84.80
4052;DHT22;2040;50.924;11.604;2023-07-13T14:01:44;26.70;86.40
4052;DHT22;2040;50.924;11.604;2023-07-13T14:04:16;26.60;87.50
4052;DHT22;2040;50.924;11.604;2023-07-13T14:06:46;26.50;85.70
4052;DHT22;2040;50.924;11.604;2023-07-13T14:09:23;26.50;86.40
4052;DHT22;2040;50.924;11.604;2023-07-13T14:11:59;26.50;84.30
4052;DHT22;2040;50.924;11.604;2023-07-13T14:14:25;26.10;85.80
4052;DHT22;2040;50.924;11.604;2023-07-13T14:16:56;26.30;86.10
4052;DHT22;2040;50.924;11.604;2023-07-13T14:19:25;26.80;87.80
4052;DHT22;2040;50.924;11.604;2023-07-13T14:22:18;27.10;86.50
4052;DHT22;2040;50.924;11.604;2023-07-13T14:24:47;27.40;86.10
4052;DHT22;2040;50.924;11.604;2023-07-13T14:27:14;27.30;83.10
4052;DHT22;2040;50.924;11.604;2023-07-13T14:29:45;27.40;86.10
4052;DHT22;2040;50.924;11.604;2023-07-13T14:32:14;27.50;82.90
4052;DHT22;2040;50.924;11.604;2023-07-13T14:34:40;27.20;83.50
4052;DHT22;2040;50.924;11.604;2023-07-13T14:37:15;27.30;83.30
4052;DHT22;2040;50.924;11.604;2023-07-13T14:39:44;27.00;83.90
4052;DHT22;2040;50.924;11.604;2023-07-13T14:42:14;27.10;84.70
4052;DHT22;2040;50.924;11.604;2023-07-13T14:44:40;27.20;84.60
4052;DHT22;2040;50.924;11.604;2023-07-13T14:47:07;27.40;84.60
4052;DHT22;2040;50.924;11.604;2023-07-13T14:49:38;27.60;83.00
4052;DHT22;2040;50.924;11.604;2023-07-13T14:52:20;27.60;84.80
4052;DHT22;2040;50.924;11.604;2023-07-13T14:54:46;27.40;84.80
4052;DHT22;2040;50.924;11.604;2023-07-13T14:57:24;27.60;84.90
4052;DHT22;2040;50.924;11.604;2023-07-13T14:59:50;27.40;83.60
4052;DHT22;2040;50.924;11.604;2023-07-13T15:02:25;27.00;81.60
4052;DHT22;2040;50.924;11.604;2023-07-13T15:04:51;26.80;82.40
4052;DHT22;2040;50.924;11.604;2023-07-13T15:07:17;26.70;83.10
4052;DHT22;2040;50.924;11.604;2023-07-13T15:09:47;27.10;86.20
4052;DHT22;2040;50.924;11.604;2023-07-13T15:12:17;27.70;80.60
4052;DHT22;2040;50.924;11.604;2023-07-13T15:14:43;27.00;82.30
4052;DHT22;2040;50.924;11.604;2023-07-13T15:17:29;26.70;81.70
4052;DHT22;2040;50.924;11.604;2023-07-13T15:19:59;26.50;82.70
4052;DHT22;2040;50.924;11.604;2023-07-13T15:22:34;26.20;82.90
4052;DHT22;2040;50.924;11.604;2023-07-13T15:25:00;26.10;81.70
4052;DHT22;2040;50.924;11.604;2023-07-13T15:27:25;26.10;82.60
4052;DHT22;2040;50.924;11.604;2023-07-13T15:29:52;26.30;82.20
4052;DHT22;2040;50.924;11.604;2023-07-13T15:32:18;26.40;81.10
4052;DHT22;2040;50.924;11.604;2023-07-13T15:34:44;26.70;82.30
4052;DHT22;2040;50.924;11.604;2023-07-13T15:37:14;27.10;82.00
4052;DHT22;2040;50.924;11.604;2023-07-13T15:39:41;27.30;83.30
4052;DHT22;2040;50.924;11.604;2023-07-13T15:42:14;27.20;80.50
4052;DHT22;2040;50.924;11.604;2023-07-13T15:44:41;26.60;79.60
4052;DHT22;2040;50.924;11.604;2023-07-13T15:47:11;26.50;82.80
4052;DHT22;2040;50.924;11.604;2023-07-13T15:49:38;26.70;81.30
4052;DHT22;2040;50.924;11.604;2023-07-13T15:52:04;26.80;82.90
4052;DHT22;2040;50.924;11.604;2023-07-13T15:54:31;26.70;81.50
4052;DHT22;2040;50.924;11.604;2023-07-13T15:57:00;26.80;80.30
4052;DHT22;2040;50.924;11.604;2023-07-13T15:59:26;26.30;81.90
4052;DHT22;2040;50.924;11.604;2023-07-13T16:01:52;26.10;81.40
4052;DHT22;2040;50.924;11.604;2023-07-13T16:04:17;25.70;82.10
4052;DHT22;2040;50.924;11.604;2023-07-13T16:06:45;25.70;81.80
4052;DHT22;2040;50.924;11.604;2023-07-13T16:09:21;25.70;81.90
4052;DHT22;2040;50.924;11.604;2023-07-13T16:11:47;25.80;84.80
4052;DHT22;2040;50.924;11.604;2023-07-13T16:14:14;26.10;82.90
4052;DHT22;2040;50.924;11.604;2023-07-13T16:16:40;26.30;83.70
4052;DHT22;2040;50.924;11.604;2023-07-13T16:19:06;26.00;81.60
4052;DHT22;2040;50.924;11.604;2023-07-13T16:21:37;25.80;81.70